Time;durP1;ratioP1;P1;durP2;ratioP2;P2;SDS_P1;SDS_P2;PMS_P1;PMS_P2;Temp;Humidity;BMP_temperature;BMP_pressure;BME280_temperature;BME280_humidity;BME280_pressure;Samples;Min_cycle;Max_cycle;Signal;HPM_P1;HPM_P2
2023/07/20 00:02:02;;;;;;;1.83;1.40;;;22.60;57.50;;;;;;5054857;28;20417;-80
2023/07/20 00:04:28;;;;;;;1.52;1.42;;;22.60;57.60;;;;;;5022669;28;20063;-81
2023/07/20 00:06:53;;;;;;;1.70;1.30;;;22.60;57.50;;;;;;5055353;28;20408;-80
2023/07/20 00:09:21;;;;;;;1.90;1.40;;;22.50;57.50;;;;;;5055439;28;20029;-80
2023/07/20 00:11:51;;;;;;;3.08;1.52;;;22.50;57.50;;;;;;5055130;28;20041;-80
2023/07/20 00:14:18;;;;;;;1.92;1.50;;;22.50;57.50;;;;;;5055304;28;20440;-80
2023/07/20 00:16:46;;;;;;;2.88;1.60;;;22.50;57.50;;;;;;5057444;28;20043;-80
2023/07/20 00:19:13;;;;;;;2.25;1.63;;;22.50;57.50;;;;;;5038904;28;20401;-81
2023/07/20 00:21:42;;;;;;;2.90;1.58;;;22.50;57.50;;;;;;5055305;28;20510;-80
2023/07/20 00:24:08;;;;;;;2.75;1.60;;;22.40;57.50;;;;;;5023595;28;20159;-80
2023/07/20 00:26:37;;;;;;;2.47;1.80;;;22.40;57.50;;;;;;5055265;28;20122;-80
2023/07/20 00:29:02;;;;;;;2.17;1.50;;;22.40;57.60;;;;;;5038728;28;20123;-79
2023/07/20 00:31:29;;;;;;;1.85;1.60;;;22.40;57.60;;;;;;5055245;28;20584;-79
2023/07/20 00:33:56;;;;;;;2.35;1.67;;;22.40;57.50;;;;;;5055366;28;20037;-79
2023/07/20 00:36:21;;;;;;;1.67;1.50;;;22.30;57.50;;;;;;5038624;28;20384;-79
2023/07/20 00:38:47;;;;;;;2.63;1.95;;;22.30;57.60;;;;;;5056731;28;20029;-79
2023/07/20 00:41:13;;;;;;;1.88;1.58;;;22.20;57.60;;;;;;5053948;28;20044;-79
2023/07/20 00:43:39;;;;;;;2.08;1.73;;;22.20;57.60;;;;;;5038475;28;20128;-80
2023/07/20 00:46:05;;;;;;;2.85;1.88;;;22.20;57.60;;;;;;5039996;28;20122;-79
2023/07/20 00:48:32;;;;;;;2.65;1.60;;;22.20;57.70;;;;;;5055933;28;20039;-80
2023/07/20 00:51:00;;;;;;;2.55;1.52;;;22.20;57.70;;;;;;5055494;28;20040;-83
2023/07/20 00:53:26;;;;;;;1.90;1.60;;;22.20;57.80;;;;;;5054774;28;20036;-80
2023/07/20 00:55:53;;;;;;;1.88;1.70;;;22.10;57.70;;;;;;5038333;28;20397;-80
2023/07/20 00:58:19;;;;;;;2.08;1.60;;;22.10;58.10;;;;;;5054650;28;20063;-79
2023/07/20 01:00:44;;;;;;;1.95;1.55;;;22.10;57.80;;;;;;5038018;28;20041;-81
2023/07/20 01:03:10;;;;;;;2.15;1.63;;;22.10;57.80;;;;;;5054644;28;20056;-80
2023/07/20 01:05:47;;;;;;;1.95;1.50;;;22.00;57.80;;;;;;5054534;28;20060;-82
2023/07/20 01:08:47;;;;;;;2.45;1.52;;;22.00;57.80;;;;;;5054214;28;20446;-79
2023/07/20 01:11:20;;;;;;;1.77;1.30;;;22.00;57.90;;;;;;5037244;28;20021;-79
2023/07/20 01:13:46;;;;;;;2.85;1.70;;;22.00;57.90;;;;;;5054153;28;20039;-79
2023/07/20 01:16:12;;;;;;;2.08;1.50;;;21.90;57.90;;;;;;5004684;28;20132;-80
2023/07/20 01:18:38;;;;;;;1.70;1.50;;;21.90;58.10;;;;;;5054399;28;20448;-84
2023/07/20 01:21:09;;;;;;;2.30;1.70;;;21.90;57.90;;;;;;5020803;28;20116;-79
2023/07/20 01:24:21;;;;;;;2.03;1.45;;;21.90;58.00;;;;;;5054691;28;20025;-79
2023/07/20 01:27:04;;;;;;;2.00;1.70;;;21.80;58.10;;;;;;5001906;28;20045;-79
2023/07/20 01:29:52;;;;;;;2.42;1.70;;;21.80;58.00;;;;;;5054163;28;20036;-80
2023/07/20 01:32:22;;;;;;;1.88;1.50;;;21.80;58.00;;;;;;5054595;28;20029;-80
2023/07/20 01:34:52;;;;;;;1.80;1.30;;;21.80;58.00;;;;;;5054249;28;20044;-79
2023/07/20 01:37:19;;;;;;;1.75;1.58;;;21.70;58.10;;;;;;5054733;28;20051;-79
2023/07/20 01:39:46;;;;;;;1.30;1.20;;;21.70;58.10;;;;;;5053482;28;20430;-79
2023/07/20 01:42:12;;;;;;;1.80;1.40;;;21.70;58.20;;;;;;5053991;28;20037;-80
2023/07/20 01:44:38;;;;;;;1.98;1.40;;;21.70;58.20;;;;;;5053361;28;20478;-80
2023/07/20 01:47:04;;;;;;;2.20;1.67;;;21.70;58.20;;;;;;5020658;28;20473;-80
2023/07/20 01:49:30;;;;;;;2.33;1.83;;;21.60;58.20;;;;;;5037267;28;20115;-80
2023/07/20 01:51:55;;;;;;;1.92;1.38;;;21.60;58.30;;;;;;5053512;28;20120;-80
2023/07/20 01:54:22;;;;;;;2.05;1.38;;;21.60;58.30;;;;;;5021176;28;20041;-80
2023/07/20 01:56:48;;;;;;;1.80;1.40;;;21.60;58.30;;;;;;5057223;28;20075;-80
2023/07/20 01:59:14;;;;;;;2.05;1.50;;;21.60;58.30;;;;;;5057467;28;20102;-80
2023/07/20 02:01:39;;;;;;;1.88;1.42;;;21.50;58.30;;;;;;5057286;28;20110;-80
2023/07/20 02:04:05;;;;;;;1.83;1.42;;;21.50;58.40;;;;;;5040355;28;20055;-79
2023/07/20 02:06:31;;;;;;;1.42;1.33;;;21.50;57.80;;;;;;5039772;28;20419;-79
2023/07/20 02:08:57;;;;;;;2.15;1.60;;;21.50;58.40;;;;;;5073214;28;20025;-79
2023/07/20 02:11:23;;;;;;;1.67;1.45;;;21.50;58.50;;;;;;5056554;28;20127;-82
2023/07/20 02:13:48;;;;;;;2.00;1.60;;;21.50;58.50;;;;;;5056645;28;20068;-79
2023/07/20 02:16:14;;;;;;;2.40;1.58;;;21.50;58.50;;;;;;5056869;28;20131;-80
2023/07/20 02:18:40;;;;;;;1.67;1.40;;;21.40;58.50;;;;;;5039702;28;20087;-79
2023/07/20 02:21:07;;;;;;;2.22;1.52;;;21.40;58.50;;;;;;5074635;28;20040;-80
2023/07/20 02:23:33;;;;;;;1.92;1.45;;;21.40;58.60;;;;;;5055836;28;20033;-78
2023/07/20 02:25:58;;;;;;;1.73;1.30;;;21.40;58.60;;;;;;5056317;28;20045;-79
2023/07/20 02:28:24;;;;;;;2.33;1.52;;;21.40;58.70;;;;;;5056020;28;20032;-79
2023/07/20 02:30:50;;;;;;;1.33;1.23;;;21.40;58.70;;;;;;5056081;28;20171;-80
2023/07/20 02:33:15;;;;;;;2.00;1.58;;;21.30;58.70;;;;;;5056229;28;20033;-80
2023/07/20 02:35:41;;;;;;;1.58;1.40;;;21.30;58.70;;;;;;5023776;28;20064;-79
2023/07/20 02:38:08;;;;;;;1.63;1.45;;;21.30;58.80;;;;;;5056709;28;20039;-80
2023/07/20 02:40:33;;;;;;;1.88;1.40;;;21.30;58.80;;;;;;5056068;28;20028;-79
2023/07/20 02:43:00;;;;;;;1.70;1.42;;;21.20;58.80;;;;;;5056116;28;20036;-79
2023/07/20 02:45:25;;;;;;;1.35;1.23;;;21.20;58.80;;;;;;5073531;28;20115;-79
2023/07/20 02:47:51;;;;;;;1.42;1.27;;;21.20;58.90;;;;;;5055910;28;20120;-79
2023/07/20 02:50:17;;;;;;;1.48;1.30;;;21.20;58.90;;;;;;5040103;28;20142;-79
2023/07/20 02:52:43;;;;;;;1.70;1.50;;;21.20;58.90;;;;;;5073656;28;20503;-79
2023/07/20 02:55:09;;;;;;;1.45;1.23;;;21.10;58.90;;;;;;5056280;28;20045;-80
2023/07/20 02:57:35;;;;;;;1.25;1.15;;;21.10;59.00;;;;;;5055629;28;20106;-80
2023/07/20 03:00:04;;;;;;;1.30;1.20;;;21.10;59.00;;;;;;5039130;28;20385;-80
2023/07/20 03:02:30;;;;;;;1.65;1.50;;;21.10;59.00;;;;;;5039092;28;20036;-79
2023/07/20 03:04:57;;;;;;;1.30;1.10;;;21.10;59.10;;;;;;5038499;28;20041;-79
2023/07/20 03:07:23;;;;;;;1.38;1.27;;;21.10;59.10;;;;;;5055311;28;20124;-79
2023/07/20 03:09:48;;;;;;;1.38;1.15;;;21.00;59.00;;;;;;5055549;28;20127;-80
2023/07/20 03:12:15;;;;;;;1.40;1.30;;;21.00;59.10;;;;;;5039265;28;20032;-79
2023/07/20 03:14:41;;;;;;;1.38;1.13;;;21.00;59.10;;;;;;5039391;28;20428;-81
2023/07/20 03:17:08;;;;;;;2.25;1.40;;;20.90;59.10;;;;;;5039029;28;20126;-80
2023/07/20 03:19:34;;;;;;;1.85;1.20;;;20.90;59.20;;;;;;5055520;28;20032;-80
2023/07/20 03:22:00;;;;;;;1.42;1.20;;;20.90;59.20;;;;;;5038937;28;20039;-80
2023/07/20 03:24:25;;;;;;;1.73;1.20;;;20.90;59.20;;;;;;5055583;28;20032;-80
2023/07/20 03:26:52;;;;;;;1.20;1.10;;;20.90;59.30;;;;;;5055354;28;20388;-80
2023/07/20 03:29:18;;;;;;;1.25;1.15;;;20.80;59.30;;;;;;5073846;28;20112;-80
2023/07/20 03:31:46;;;;;;;1.10;1.00;;;20.80;59.30;;;;;;5039844;28;20029;-80
2023/07/20 03:34:11;;;;;;;1.27;1.10;;;20.80;59.30;;;;;;5055506;28;20090;-81
2023/07/20 03:36:37;;;;;;;1.42;1.33;;;20.80;59.40;;;;;;5055993;28;20522;-80
2023/07/20 03:39:03;;;;;;;1.25;1.05;;;20.70;59.30;;;;;;5073506;28;20412;-81
2023/07/20 03:41:29;;;;;;;1.15;1.08;;;20.70;59.30;;;;;;5055273;28;20499;-80
2023/07/20 03:43:54;;;;;;;1.58;1.13;;;20.70;59.40;;;;;;5040130;28;20056;-81
2023/07/20 03:46:21;;;;;;;1.20;1.10;;;20.70;59.40;;;;;;5039800;28;20075;-81
2023/07/20 03:48:46;;;;;;;1.55;1.30;;;20.60;59.40;;;;;;5039859;28;20036;-79
2023/07/20 03:51:12;;;;;;;1.60;1.13;;;20.60;59.40;;;;;;5055652;28;20603;-80
2023/07/20 03:53:38;;;;;;;1.30;1.10;;;20.60;59.50;;;;;;5055267;28;20033;-78
2023/07/20 03:56:04;;;;;;;1.00;1.00;;;20.60;59.50;;;;;;5038595;28;20461;-80
2023/07/20 03:58:31;;;;;;;1.20;1.10;;;20.50;59.50;;;;;;5038355;28;20090;-80
2023/07/20 04:01:00;;;;;;;1.33;0.98;;;20.50;59.50;;;;;;5055246;28;20056;-80
2023/07/20 04:03:26;;;;;;;1.17;1.08;;;20.50;59.60;;;;;;5039032;28;20112;-80
2023/07/20 04:05:55;;;;;;;1.05;0.93;;;20.50;59.60;;;;;;5023026;28;20465;-83
2023/07/20 04:08:23;;;;;;;1.30;1.20;;;20.50;59.70;;;;;;5055764;28;20068;-82
2023/07/20 04:10:48;;;;;;;1.52;1.10;;;20.40;59.60;;;;;;5038629;28;20123;-80
2023/07/20 04:13:14;;;;;;;1.60;1.15;;;20.40;59.60;;;;;;5038738;28;20067;-80
2023/07/20 04:15:40;;;;;;;1.00;1.00;;;20.40;59.60;;;;;;5040393;28;20502;-79
2023/07/20 04:18:06;;;;;;;1.27;1.10;;;20.40;59.70;;;;;;5075313;28;20024;-81
2023/07/20 04:20:31;;;;;;;1.60;1.20;;;20.40;59.70;;;;;;5058658;28;20391;-80
2023/07/20 04:22:57;;;;;;;1.50;1.20;;;20.40;59.80;;;;;;5058425;28;20039;-80
2023/07/20 04:25:24;;;;;;;1.20;1.10;;;20.30;59.80;;;;;;5058545;28;20032;-80
2023/07/20 04:27:51;;;;;;;1.45;1.20;;;20.30;59.80;;;;;;5058322;28;20120;-80
2023/07/20 04:30:22;;;;;;;1.17;1.10;;;20.30;59.80;;;;;;5058332;28;20036;-82
2023/07/20 04:32:48;;;;;;;1.20;1.10;;;20.30;59.80;;;;;;5042001;28;20425;-80
2023/07/20 04:35:53;;;;;;;1.20;1.10;;;20.20;59.80;;;;;;5058268;28;20089;-80
2023/07/20 04:38:34;;;;;;;1.35;1.10;;;20.20;59.90;;;;;;4959201;28;20533;-80
2023/07/20 04:41:08;;;;;;;1.23;1.13;;;20.20;60.50;;;;;;5070017;28;20041;-80
2023/07/20 04:43:43;;;;;;;2.03;1.30;;;20.20;59.90;;;;;;5075503;28;20044;-80
2023/07/20 04:46:10;;;;;;;1.58;1.23;;;20.20;60.00;;;;;;5042410;28;20040;-80
2023/07/20 04:48:36;;;;;;;1.98;1.30;;;20.20;60.00;;;;;;5058308;28;20037;-85
2023/07/20 04:51:03;;;;;;;1.65;1.48;;;20.10;60.00;;;;;;5058318;28;20186;-78
2023/07/20 04:53:29;;;;;;;2.00;1.20;;;20.10;60.00;;;;;;5041415;28;20072;-80
2023/07/20 04:55:56;;;;;;;1.40;1.30;;;20.10;60.00;;;;;;5041687;28;20032;-80
2023/07/20 04:58:24;;;;;;;1.35;1.10;;;20.10;60.10;;;;;;5054032;28;20079;-80
2023/07/20 05:00:51;;;;;;;1.40;1.30;;;20.10;60.10;;;;;;5054426;28;20047;-78
2023/07/20 05:03:17;;;;;;;1.33;1.23;;;20.10;60.20;;;;;;5054691;28;20025;-78
2023/07/20 05:05:43;;;;;;;1.40;1.30;;;20.00;60.10;;;;;;5038602;28;20343;-78
2023/07/20 05:08:10;;;;;;;1.27;1.10;;;20.00;60.80;;;;;;5054244;28;20064;-77
2023/07/20 05:10:36;;;;;;;1.63;1.23;;;20.00;60.20;;;;;;5054726;28;20476;-78
2023/07/20 05:13:01;;;;;;;1.83;1.20;;;20.00;60.20;;;;;;5020822;28;20504;-79
2023/07/20 05:15:27;;;;;;;1.35;0.98;;;20.00;60.20;;;;;;5037413;28;20037;-78
2023/07/20 05:17:54;;;;;;;1.58;1.27;;;20.00;60.20;;;;;;5037879;28;20033;-77
2023/07/20 05:20:20;;;;;;;1.02;0.93;;;20.00;60.20;;;;;;5054175;28;20039;-80
2023/07/20 05:22:46;;;;;;;1.75;1.27;;;20.00;60.30;;;;;;5053945;28;20033;-79
2023/07/20 05:25:12;;;;;;;1.75;1.15;;;20.00;60.30;;;;;;5053941;28;20029;-81
2023/07/20 05:27:38;;;;;;;1.40;1.30;;;19.90;60.30;;;;;;5053780;28;20029;-79
2023/07/20 05:30:05;;;;;;;1.13;1.10;;;20.00;60.40;;;;;;5037268;28;20033;-79
2023/07/20 05:32:31;;;;;;;0.95;0.90;;;20.00;60.40;;;;;;5053864;28;20040;-79
2023/07/20 05:34:57;;;;;;;1.10;1.00;;;19.90;60.40;;;;;;5037081;28;20057;-79
2023/07/20 05:37:23;;;;;;;1.30;1.13;;;19.90;60.40;;;;;;5055095;28;20069;-79
2023/07/20 05:39:49;;;;;;;1.15;1.05;;;19.90;60.40;;;;;;5037396;28;20036;-79
2023/07/20 05:42:14;;;;;;;1.23;1.13;;;19.90;60.40;;;;;;5053527;28;20074;-78
2023/07/20 05:44:41;;;;;;;1.20;1.10;;;19.90;60.40;;;;;;5053569;28;20029;-77
2023/07/20 05:47:07;;;;;;;0.90;0.90;;;19.90;60.40;;;;;;5054421;28;20094;-76
2023/07/20 05:49:34;;;;;;;1.00;1.00;;;19.90;60.40;;;;;;5037113;28;20032;-78
2023/07/20 05:52:00;;;;;;;1.40;1.20;;;19.90;60.50;;;;;;5053265;28;20032;-77
2023/07/20 05:54:27;;;;;;;1.20;1.10;;;19.90;60.50;;;;;;5036675;28;20033;-77
2023/07/20 05:56:53;;;;;;;1.10;1.00;;;19.90;60.50;;;;;;5020662;28;20104;-78
2023/07/20 05:59:19;;;;;;;1.30;1.20;;;19.90;60.60;;;;;;5053443;28;20130;-77
2023/07/20 06:01:48;;;;;;;1.35;1.10;;;19.90;60.60;;;;;;5053299;28;20086;-77
2023/07/20 06:04:14;;;;;;;1.15;1.05;;;19.90;60.60;;;;;;5053254;28;20079;-79
2023/07/20 06:06:39;;;;;;;1.20;1.10;;;19.90;60.60;;;;;;5053613;28;20040;-78
2023/07/20 06:09:09;;;;;;;1.42;1.00;;;19.90;60.70;;;;;;5053169;28;20469;-78
2023/07/20 06:11:36;;;;;;;0.95;0.93;;;19.90;60.70;;;;;;5054694;28;20060;-77
2023/07/20 06:14:02;;;;;;;1.00;0.90;;;19.90;60.70;;;;;;5053422;28;20032;-78
2023/07/20 06:16:27;;;;;;;0.90;0.90;;;19.90;60.70;;;;;;5053743;28;20041;-79
2023/07/20 06:18:53;;;;;;;0.80;0.80;;;19.90;60.70;;;;;;5052833;28;20032;-76
2023/07/20 06:21:19;;;;;;;1.00;0.82;;;19.90;60.70;;;;;;5036347;28;20037;-78
2023/07/20 06:23:46;;;;;;;1.00;0.90;;;19.90;60.70;;;;;;5036143;28;20033;-78
2023/07/20 06:26:11;;;;;;;1.13;1.00;;;19.90;60.60;;;;;;5054143;28;20059;-78
2023/07/20 06:28:37;;;;;;;0.90;0.90;;;19.90;60.70;;;;;;5053805;28;20033;-80
2023/07/20 06:31:03;;;;;;;0.98;0.98;;;19.90;60.60;;;;;;5036099;28;20596;-80
2023/07/20 06:33:29;;;;;;;0.90;0.90;;;19.90;60.60;;;;;;5053555;28;20527;-79
2023/07/20 06:35:56;;;;;;;1.00;0.90;;;19.90;60.70;;;;;;5052569;28;20040;-80
2023/07/20 06:38:23;;;;;;;0.95;0.90;;;19.90;60.70;;;;;;5053577;28;20523;-81
2023/07/20 06:40:49;;;;;;;1.13;0.90;;;19.90;60.60;;;;;;5070284;28;20039;-80
2023/07/20 06:43:16;;;;;;;0.80;0.80;;;19.90;60.60;;;;;;5037653;28;20037;-80
2023/07/20 06:45:42;;;;;;;0.73;0.73;;;19.90;60.70;;;;;;5054320;28;20041;-80
2023/07/20 06:48:08;;;;;;;0.70;0.70;;;19.90;60.60;;;;;;5054372;28;20381;-80
2023/07/20 06:50:33;;;;;;;0.98;0.90;;;19.90;60.60;;;;;;5053241;28;20037;-80
2023/07/20 06:53:00;;;;;;;0.80;0.70;;;19.90;60.60;;;;;;5053640;28;20025;-80
2023/07/20 06:55:26;;;;;;;1.40;0.95;;;19.90;60.60;;;;;;5052531;28;20072;-79
2023/07/20 06:57:52;;;;;;;0.70;0.70;;;19.90;60.50;;;;;;5058216;28;20091;-80
2023/07/20 07:00:18;;;;;;;1.20;0.88;;;19.90;60.50;;;;;;5072822;28;20524;-80
2023/07/20 07:02:44;;;;;;;0.70;0.70;;;19.90;60.50;;;;;;5039329;28;20036;-81
2023/07/20 07:05:09;;;;;;;1.05;0.70;;;19.90;60.50;;;;;;5055708;28;20127;-81
2023/07/20 07:07:36;;;;;;;0.70;0.70;;;19.90;60.40;;;;;;5055735;28;20028;-83
2023/07/20 07:10:05;;;;;;;0.70;0.70;;;19.90;60.40;;;;;;5039135;28;20028;-81
2023/07/20 07:12:30;;;;;;;1.38;0.73;;;20.00;60.50;;;;;;5055692;28;20032;-81
2023/07/20 07:14:56;;;;;;;1.00;0.90;;;19.90;60.40;;;;;;5072885;28;20067;-81
2023/07/20 07:17:22;;;;;;;0.70;0.70;;;19.90;60.30;;;;;;5055233;28;20029;-80
2023/07/20 07:19:48;;;;;;;0.82;0.80;;;19.90;60.30;;;;;;5022610;28;20024;-81
2023/07/20 07:22:14;;;;;;;0.55;0.55;;;20.00;60.40;;;;;;5073971;28;20112;-81
2023/07/20 07:24:41;;;;;;;0.60;0.60;;;20.00;60.30;;;;;;5039059;28;20048;-81
2023/07/20 07:27:09;;;;;;;1.05;0.90;;;20.00;60.30;;;;;;5039010;28;20074;-81
2023/07/20 07:29:35;;;;;;;0.95;0.90;;;20.00;60.30;;;;;;5055353;28;20056;-81
2023/07/20 07:32:01;;;;;;;0.70;0.70;;;20.00;60.20;;;;;;5022784;28;20035;-81
2023/07/20 07:34:27;;;;;;;0.68;0.68;;;20.00;60.20;;;;;;5055313;28;20469;-81
2023/07/20 07:36:53;;;;;;;0.70;0.70;;;20.10;60.20;;;;;;5038906;28;20025;-81
2023/07/20 07:39:19;;;;;;;0.60;0.60;;;20.10;60.20;;;;;;5073493;28;20062;-81
2023/07/20 07:41:45;;;;;;;0.52;0.52;;;20.10;60.20;;;;;;5055248;28;20576;-81
2023/07/20 07:44:11;;;;;;;0.70;0.70;;;20.20;60.20;;;;;;5055323;28;20052;-82
2023/07/20 07:46:37;;;;;;;0.82;0.75;;;20.20;60.10;;;;;;5038771;28;20202;-81
2023/07/20 07:49:03;;;;;;;0.60;0.60;;;20.20;60.00;;;;;;5071805;28;20519;-82
2023/07/20 07:51:29;;;;;;;0.85;0.70;;;20.30;60.00;;;;;;5042184;28;20127;-81
2023/07/20 07:53:55;;;;;;;0.75;0.73;;;20.30;59.90;;;;;;5059273;28;20063;-81
2023/07/20 07:56:22;;;;;;;0.70;0.70;;;20.40;59.80;;;;;;5059919;28;20144;-81
2023/07/20 07:58:53;;;;;;;0.70;0.70;;;20.50;59.70;;;;;;5076851;28;20373;-81
2023/07/20 08:01:19;;;;;;;1.00;0.73;;;20.50;59.70;;;;;;5059763;28;20078;-81
2023/07/20 08:03:47;;;;;;;0.50;0.50;;;20.60;59.50;;;;;;5010349;28;20477;-81
2023/07/20 08:06:13;;;;;;;0.75;0.75;;;20.70;59.40;;;;;;5042283;28;20126;-80
2023/07/20 08:08:39;;;;;;;0.80;0.80;;;20.70;59.30;;;;;;5059190;28;20122;-82
2023/07/20 08:11:05;;;;;;;0.70;0.70;;;20.80;59.20;;;;;;5042362;28;20476;-82
2023/07/20 08:13:32;;;;;;;0.70;0.70;;;20.80;59.10;;;;;;5076903;28;20060;-81
2023/07/20 08:15:58;;;;;;;0.88;0.50;;;20.90;59.10;;;;;;5043072;28;20407;-81
2023/07/20 08:18:24;;;;;;;0.63;0.63;;;20.90;59.00;;;;;;5025719;28;20171;-81
2023/07/20 08:20:50;;;;;;;0.88;0.60;;;21.00;59.00;;;;;;5042075;28;20028;-82
2023/07/20 08:23:16;;;;;;;0.70;0.60;;;21.00;59.00;;;;;;5042145;28;20487;-82
2023/07/20 08:25:45;;;;;;;0.70;0.68;;;21.10;58.90;;;;;;5058904;28;20055;-82
2023/07/20 08:28:12;;;;;;;0.52;0.52;;;21.10;58.90;;;;;;5042248;28;20032;-81
2023/07/20 08:30:42;;;;;;;0.70;0.70;;;21.20;58.90;;;;;;5058372;28;20115;-81
2023/07/20 08:33:09;;;;;;;0.55;0.55;;;21.20;58.80;;;;;;5076482;28;20032;-82
2023/07/20 08:35:36;;;;;;;0.60;0.60;;;21.30;58.70;;;;;;5042063;28;20036;-82
2023/07/20 08:38:02;;;;;;;0.63;0.63;;;21.30;58.60;;;;;;5041644;28;20472;-81
2023/07/20 08:40:27;;;;;;;0.70;0.70;;;21.30;58.50;;;;;;5076480;28;20456;-82
2023/07/20 08:42:55;;;;;;;0.70;0.70;;;21.40;58.40;;;;;;5074840;28;20110;-81
2023/07/20 08:45:23;;;;;;;0.98;0.65;;;21.50;58.30;;;;;;5041363;28;20112;-82
2023/07/20 08:47:50;;;;;;;0.68;0.68;;;21.50;58.20;;;;;;5075847;28;20042;-82
2023/07/20 08:50:16;;;;;;;0.93;0.60;;;21.60;58.10;;;;;;5076181;28;20563;-83
2023/07/20 08:52:42;;;;;;;0.75;0.70;;;21.70;58.00;;;;;;5041369;28;20036;-83
2023/07/20 08:55:08;;;;;;;0.80;0.80;;;21.80;57.90;;;;;;5042002;28;20048;-80
2023/07/20 08:57:35;;;;;;;0.65;0.60;;;21.90;57.80;;;;;;5057716;28;20503;-81
2023/07/20 09:00:12;;;;;;;0.57;0.57;;;22.00;57.70;;;;;;5041339;28;20072;-82
2023/07/20 09:02:41;;;;;;;0.60;0.60;;;22.00;57.60;;;;;;5057511;28;20492;-81
2023/07/20 09:05:08;;;;;;;0.80;0.80;;;22.10;57.50;;;;;;5076033;28;20457;-82
2023/07/20 09:07:36;;;;;;;0.60;0.60;;;22.20;57.30;;;;;;5058312;28;20533;-81
2023/07/20 09:10:06;;;;;;;0.70;0.70;;;22.30;57.30;;;;;;5058024;28;20036;-81
2023/07/20 09:12:39;;;;;;;0.50;0.50;;;22.40;57.20;;;;;;5059119;28;20040;-81
2023/07/20 09:15:06;;;;;;;1.27;0.85;;;22.50;57.10;;;;;;5041145;28;20373;-81
2023/07/20 09:17:32;;;;;;;0.50;0.50;;;22.60;57.00;;;;;;5075411;28;20028;-81
2023/07/20 09:19:58;;;;;;;0.60;0.60;;;22.60;56.90;;;;;;5041178;28;20044;-81
2023/07/20 09:22:31;;;;;;;0.80;0.70;;;22.70;56.90;;;;;;5041193;28;20036;-81
2023/07/20 09:24:58;;;;;;;0.70;0.70;;;22.70;56.80;;;;;;5075002;28;20056;-80
2023/07/20 09:27:47;;;;;;;0.50;0.50;;;22.80;56.80;;;;;;5057728;28;20087;-81
2023/07/20 09:30:14;;;;;;;0.68;0.68;;;22.80;56.80;;;;;;5057933;28;20039;-82
2023/07/20 09:32:44;;;;;;;0.75;0.60;;;22.90;56.80;;;;;;5057108;28;20032;-81
2023/07/20 09:35:21;;;;;;;0.52;0.52;;;22.90;56.80;;;;;;5074906;28;20476;-81
2023/07/20 09:37:54;;;;;;;0.57;0.57;;;22.90;56.80;;;;;;5040683;28;20464;-80
2023/07/20 09:40:20;;;;;;;0.52;0.52;;;23.00;56.80;;;;;;5075260;28;20111;-79
2023/07/20 09:42:47;;;;;;;0.43;0.43;;;22.90;56.70;;;;;;5040383;28;20477;-80
2023/07/20 09:45:13;;;;;;;0.60;0.60;;;23.00;56.80;;;;;;5057244;28;20047;-80
2023/07/20 09:47:39;;;;;;;0.60;0.57;;;23.00;56.70;;;;;;5075255;28;20033;-80
2023/07/20 09:50:12;;;;;;;0.60;0.60;;;23.00;56.70;;;;;;5056787;28;20032;-81
2023/07/20 09:52:40;;;;;;;0.40;0.40;;;23.10;56.80;;;;;;5056891;28;20366;-80
2023/07/20 09:55:09;;;;;;;0.80;0.65;;;23.10;56.80;;;;;;5056858;28;20033;-80
2023/07/20 09:57:38;;;;;;;0.60;0.60;;;23.10;56.70;;;;;;5056524;28;20032;-81
2023/07/20 10:00:13;;;;;;;0.60;0.60;;;23.10;56.70;;;;;;5057358;28;20095;-82
2023/07/20 10:02:46;;;;;;;0.50;0.50;;;23.10;56.70;;;;;;5056475;28;20115;-81
2023/07/20 10:05:16;;;;;;;0.90;0.65;;;23.20;56.80;;;;;;5039937;28;20050;-81
2023/07/20 10:07:48;;;;;;;0.70;0.70;;;23.20;56.80;;;;;;5056820;28;20082;-81
2023/07/20 10:10:18;;;;;;;0.60;0.60;;;23.20;56.70;;;;;;5074015;28;20064;-81
2023/07/20 10:12:49;;;;;;;0.75;0.75;;;23.20;56.60;;;;;;5056997;28;20029;-81
2023/07/20 10:15:20;;;;;;;0.57;0.57;;;23.30;56.70;;;;;;5073790;28;20060;-81
2023/07/20 10:17:57;;;;;;;0.68;0.68;;;23.30;56.60;;;;;;5074963;28;20028;-81
2023/07/20 10:20:23;;;;;;;0.82;0.70;;;23.30;56.60;;;;;;5074041;28;20033;-80
2023/07/20 10:22:54;;;;;;;0.70;0.70;;;23.30;56.60;;;;;;5039620;28;20465;-81
2023/07/20 10:25:22;;;;;;;0.60;0.60;;;23.40;56.60;;;;;;5039785;28;20035;-82
2023/07/20 10:27:48;;;;;;;0.60;0.60;;;23.40;56.50;;;;;;5074559;28;20041;-81
2023/07/20 10:30:15;;;;;;;0.52;0.52;;;23.50;56.50;;;;;;5073712;28;20031;-80
2023/07/20 10:32:42;;;;;;;0.60;0.60;;;23.50;56.50;;;;;;5074159;28;20033;-80
2023/07/20 10:35:18;;;;;;;0.70;0.70;;;23.60;56.40;;;;;;5073357;28;20419;-81
2023/07/20 10:38:02;;;;;;;0.80;0.68;;;23.60;56.40;;;;;;5056251;28;20469;-80
2023/07/20 10:40:38;;;;;;;0.52;0.52;;;23.60;56.30;;;;;;5055839;28;20025;-82
2023/07/20 10:43:09;;;;;;;1.15;0.50;;;23.70;56.30;;;;;;5055765;28;20029;-80
2023/07/20 10:45:42;;;;;;;1.02;0.68;;;23.80;56.20;;;;;;5074068;28;20040;-81
2023/07/20 10:48:25;;;;;;;0.70;0.70;;;23.80;56.10;;;;;;5056501;28;20115;-81
2023/07/20 10:51:14;;;;;;;1.05;0.63;;;23.90;56.10;;;;;;5056049;28;20468;-81
2023/07/20 10:53:40;;;;;;;0.50;0.50;;;24.00;56.10;;;;;;5039308;28;20190;-81
2023/07/20 10:56:14;;;;;;;0.68;0.68;;;24.10;55.90;;;;;;5039413;28;20051;-81
2023/07/20 10:58:42;;;;;;;0.60;0.60;;;24.20;55.90;;;;;;5055554;28;20144;-81
2023/07/20 11:01:08;;;;;;;0.70;0.60;;;24.20;55.80;;;;;;5023114;28;20476;-80
2023/07/20 11:03:38;;;;;;;0.85;0.63;;;24.30;55.80;;;;;;5039449;28;20032;-81
2023/07/20 11:06:25;;;;;;;0.77;0.77;;;24.40;55.70;;;;;;5073509;28;20031;-81
2023/07/20 11:09:10;;;;;;;0.60;0.60;;;24.40;55.70;;;;;;5055378;28;20518;-82
2023/07/20 11:11:38;;;;;;;0.90;0.77;;;24.50;55.70;;;;;;5073906;28;20032;-79
2023/07/20 11:14:07;;;;;;;0.90;0.63;;;24.60;55.70;;;;;;5055312;28;20477;-79
2023/07/20 11:16:46;;;;;;;0.93;0.77;;;24.60;55.70;;;;;;5073044;28;20469;-79
2023/07/20 11:19:17;;;;;;;0.90;0.70;;;24.70;55.80;;;;;;5073415;28;20056;-79
2023/07/20 11:21:44;;;;;;;0.60;0.60;;;24.70;55.70;;;;;;5073711;28;20024;-79
2023/07/20 11:24:10;;;;;;;0.45;0.45;;;24.80;55.80;;;;;;5022495;28;20043;-79
2023/07/20 11:26:53;;;;;;;0.50;0.50;;;24.90;55.90;;;;;;5058911;28;20044;-80
2023/07/20 11:29:20;;;;;;;0.60;0.60;;;24.90;56.00;;;;;;5077753;28;20107;-79
2023/07/20 11:31:47;;;;;;;0.40;0.40;;;25.00;56.00;;;;;;5077450;28;20105;-79
2023/07/20 11:34:22;;;;;;;0.60;0.60;;;25.10;56.10;;;;;;5077077;28;20128;-80
2023/07/20 11:36:49;;;;;;;0.60;0.60;;;25.10;56.20;;;;;;5078045;28;20033;-79
2023/07/20 11:39:16;;;;;;;0.52;0.52;;;25.10;56.10;;;;;;5059375;28;20100;-81
2023/07/20 11:41:50;;;;;;;0.50;0.50;;;25.20;56.20;;;;;;5059095;28;20063;-79
2023/07/20 11:44:17;;;;;;;0.80;0.77;;;25.20;56.30;;;;;;5059050;28;20033;-80
2023/07/20 11:46:44;;;;;;;0.80;0.70;;;25.30;56.30;;;;;;5059128;28;20032;-79
2023/07/20 11:49:10;;;;;;;0.47;0.47;;;25.30;56.30;;;;;;5042499;28;20032;-79
2023/07/20 11:51:37;;;;;;;1.23;0.60;;;25.40;56.30;;;;;;5059142;28;20039;-79
2023/07/20 11:54:05;;;;;;;0.80;0.60;;;25.40;56.20;;;;;;5042382;28;20075;-79
2023/07/20 11:56:31;;;;;;;0.57;0.55;;;25.40;56.10;;;;;;5042680;28;20194;-78
2023/07/20 11:59:00;;;;;;;0.60;0.57;;;25.40;56.10;;;;;;5058605;28;20531;-81
2023/07/20 12:01:31;;;;;;;0.80;0.57;;;25.40;56.10;;;;;;5076919;28;20033;-79
2023/07/20 12:04:01;;;;;;;0.45;0.45;;;25.40;56.00;;;;;;5043145;28;20035;-79
2023/07/20 12:06:28;;;;;;;0.60;0.60;;;25.50;56.70;;;;;;5076982;28;20036;-79
2023/07/20 12:08:58;;;;;;;0.30;0.30;;;25.50;56.00;;;;;;5058775;28;20082;-78
2023/07/20 12:11:40;;;;;;;0.68;0.68;;;25.50;56.00;;;;;;5043104;28;20036;-79
2023/07/20 12:14:09;;;;;;;0.65;0.65;;;25.60;56.00;;;;;;5042405;28;20112;-80
2023/07/20 12:16:37;;;;;;;0.52;0.52;;;25.50;55.90;;;;;;5041922;28;20485;-79
2023/07/20 12:19:06;;;;;;;0.65;0.65;;;25.60;55.90;;;;;;5025735;28;20041;-80
2023/07/20 12:21:33;;;;;;;0.85;0.70;;;25.60;55.80;;;;;;5076743;28;20029;-78
2023/07/20 12:23:59;;;;;;;0.50;0.50;;;25.60;55.90;;;;;;5058943;28;20033;-79
2023/07/20 12:26:28;;;;;;;0.60;0.60;;;25.60;55.90;;;;;;5058360;28;20036;-79
2023/07/20 12:28:54;;;;;;;0.77;0.70;;;25.60;55.90;;;;;;5041977;28;20354;-79
2023/07/20 12:31:22;;;;;;;0.70;0.70;;;25.60;55.90;;;;;;5076465;28;20028;-79
2023/07/20 12:33:49;;;;;;;0.93;0.80;;;25.60;55.90;;;;;;5041696;28;20048;-79
2023/07/20 12:36:15;;;;;;;0.70;0.70;;;25.60;55.90;;;;;;5074761;28;20079;-79
2023/07/20 12:38:41;;;;;;;0.50;0.50;;;25.60;55.80;;;;;;5058171;28;20422;-79
2023/07/20 12:41:09;;;;;;;0.75;0.75;;;25.70;55.90;;;;;;5041505;28;20473;-79
2023/07/20 12:43:35;;;;;;;0.50;0.50;;;25.70;55.80;;;;;;5058253;28;20050;-79
2023/07/20 12:46:01;;;;;;;0.50;0.50;;;25.70;55.70;;;;;;5041787;28;20033;-79
2023/07/20 12:48:27;;;;;;;0.90;0.60;;;25.70;55.70;;;;;;5025118;28;20077;-79
2023/07/20 12:50:53;;;;;;;0.63;0.60;;;25.70;55.70;;;;;;5041742;28;20036;-79
2023/07/20 12:53:18;;;;;;;0.88;0.60;;;25.70;55.70;;;;;;5058028;28;20039;-78